• Join FlightAware (Why Join?)
  • Login
  • US Flag 
08:15PM EDT


 

Airport Tracker/Info


-or-


 

Live Flight TrackerFlight Track Log ✈ EJA831 ✈ 09-Sep-2013 ✈ KDSM - KPWK

Flight Track Log - Related Links

Times and Time Zones

All times are in EDT time to prevent confusion due to time zone crossing. See the EJA831 flight status page for this flight to view local times or setup timezone preferences in your user account.

Time Position Orientation Groundspeed Altitude Reporting Facility
EDT Latitude Longitude Course Direction KTS MPH feet Rate Location/Type
10:06AM 41.5325 -93.6642 222° Southwest 170 196 1,500  Level Minneapolis Center
10:07AM 41.4794 -93.7275 222° Southwest 222 255 4,500 2,880 Climbing Minneapolis Center
10:08AM 41.4506 -93.6503 117° Southeast 277 319 7,700 2,640 Climbing Minneapolis Center
10:09AM 41.4694 -93.5397 77° East 302 348 10,000 1,320 Climbing Minneapolis Center
10:10AM 41.4978 -93.4269 71° East 317 365 10,500 1,020 Climbing Minneapolis Center
10:11AM 41.5261 -93.3069 72° East 334 384 12,200 1,620 Climbing Minneapolis Center
10:12AM 41.5500 -93.1828 76° East 342 394 13,900 2,160 Climbing Minneapolis Center
10:13AM 41.5731 -93.0586 76° East 346 398 16,700 2,940 Climbing Minneapolis Center
10:14AM 41.5997 -92.9125 76° East 343 395 20,000 2,880 Climbing Minneapolis Center
10:15AM 41.6225 -92.7903 76° East 341 392 22,700 1,440 Climbing Minneapolis Center
10:16AM 41.6467 -92.6622 76° East 345 397 23,000 120 Climbing Minneapolis Center
10:17AM 41.6753 -92.5114 76° East 377 434 23,000  Level Minneapolis Center
10:18AM 41.7022 -92.3533 77° East 419 482 23,000  Level Minneapolis Center
10:19AM 41.7358 -92.1703 76° East 428 493 23,000  Level Minneapolis Center
10:20AM 41.7633 -92.0153 77° East 431 496 23,000  Level Minneapolis Center
10:21AM 41.7906 -91.8608 77° East 431 496 23,000  Level Minneapolis Center
10:22AM 41.8189 -91.6939 77° East 430 495 23,000  Level Minneapolis Center
10:23AM 41.8544 -91.4964 76° East 425 489 23,000  Level Chicago Center
10:24AM 41.8800 -91.3450 77° East 423 487 23,000  Level Chicago Center
10:25AM 41.9058 -91.1947 77° East 420 483 23,000  Level Chicago Center
10:26AM 41.9317 -91.0442 77° East 420 483 23,000  Level Chicago Center
10:27AM 41.9614 -90.8625 78° East 419 482 23,000  Level Chicago Center
10:28AM 41.9878 -90.7122 77° East 419 482 23,000  Level Chicago Center
10:30AM 42.0117 -90.5625 78° East 415 478 23,000  Level Chicago Center
10:31AM 42.0353 -90.4117 78° East 416 479 23,000 -720 Level Chicago Center
10:32AM 42.0581 -90.2642 78° East 410 472 21,600 -1,980 Descending Chicago Center
10:33AM 42.0881 -90.0869 77° East 407 468 19,000 -2,220 Descending Chicago Center
10:34AM 42.1117 -89.9406 78° East 405 466 17,000 -1,920 Descending Chicago Center
10:35AM 42.1342 -89.8017 78° East 392 451 15,000 -1,980 Descending Chicago Center
10:36AM 42.1550 -89.6686 78° East 374 430 13,000 -1,980 Descending Chicago Center
10:37AM 42.1800 -89.5133 78° East 357 411 11,000 -1,500 Descending Chicago Center
10:38AM 42.1961 -89.4003 79° East 316 364 10,000 -1,320 Descending Chicago Center
10:39AM 42.2125 -89.2897 79° East 303 349 8,300 -1,020 Descending Chicago Center
10:40AM 42.2303 -89.1786 78° East 304 350 8,000 -180 Descending Chicago Center
10:41AM 42.2553 -89.0708 73° East 302 348 8,000  Level Chicago Center
10:42AM 42.2775 -88.9644 74° East 297 342 8,000  Level Chicago Center
10:43AM 42.3044 -88.8369 74° East 296 341 8,000 -600 Level Chicago Center
10:44AM 42.3264 -88.7306 74° East 295 339 6,800 -1,320 Descending Chicago Center
10:45AM 42.3492 -88.6250 74° East 295 339 5,300 -900 Descending Chicago Center
10:46AM 42.3694 -88.5253 75° East 283 326 5,000 -300 Descending Chicago Center
10:47AM 42.3717 -88.4342 88° East 261 300 4,800 -540 Descending Chicago Center
10:48AM 42.3653 -88.3331 95° East 267 307 4,000 -420 Descending Chicago Center
10:49AM 42.3569 -88.2225 96° East 257 296 4,000  Level Chicago Center
10:50AM 42.3522 -88.1325 94° East 251 289 4,000  Level Chicago Center
10:51AM 42.3353 -88.0561 107° East 237 273 4,000  Level Chicago Center
10:52AM 42.2972 -88.0028 134° Southeast 212 244 4,000 -420 Level Chicago Center
10:53AM 42.2497 -87.9750 157° South 198 228 3,200 -840 Descending Chicago Center
10:54AM 42.2050 -87.9472 155° Southeast 167 192 2,300 -780 Descending Chicago Center
10:55AM 42.1758 -87.9328 160° South 137 158 1,700 -600 Descending Chicago Center
10:59AM 42.1143 -87.9015 152° Southeast  Level Estimated